Terminal Aerodrome Forecast
Issued by NWS

Home | Current Version | Previous Version | Text Only | Print | Product List | Glossary On
Versions: 1 2 3 4 5 6 7 8 9 10 11 12 13 14 15
000
FTUS45 KABQ 012300
TAFLVS
TAF
KLVS 012326Z 0200/0224 23015G22KT P6SM SCT100
     FM020200 26011KT P6SM BKN090
     FM020600 32010KT P6SM SCT090
     FM021000 02008KT P6SM SKC
     FM021900 22013G22KT P6SM SKC=

USA.gov is the U.S. government's official web portal to all federal, state and local government web resources and services.